Time,TemperatureF,DewpointF,PressureIn,WindDirection,WindDirectionDegrees,WindSpeedMPH,WindSpeedGustMPH,Humidity,HourlyPrecipIn,Conditions,Clouds,dailyrainin,SoftwareType,DateUTC
2013-04-11 00:00:00,46.9,44.2,30.15,North,-999,0.0,0.0,90,0.00,,,-99.99,FreeWX-Wi 1.01,2013-04-11 07:00:00,
2013-04-11 00:05:00,46.6,43.9,30.15,North,-999,0.0,0.0,90,0.00,,,-99.99,FreeWX-Wi 1.01,2013-04-11 07:05:00,
2013-04-11 00:10:00,46.6,44.1,30.15,North,-999,0.0,0.0,91,0.00,,,-99.99,FreeWX-Wi 1.01,2013-04-11 07:10:00,
2013-04-11 00:15:00,46.4,43.9,30.15,North,-999,0.0,0.0,91,0.00,,,-99.99,FreeWX-Wi 1.01,2013-04-11 07:15:00,
2013-04-11 00:21:00,46.4,43.9,30.18,North,-999,0.0,0.0,91,0.00,,,-99.99,FreeWX-Wi 1.01,2013-04-11 07:21:00,
2013-04-11 00:26:00,46.4,43.9,30.18,North,-999,0.0,2.2,91,0.00,,,-99.99,FreeWX-Wi 1.01,2013-04-11 07:26:00,
2013-04-11 00:31:00,46.4,43.9,30.18,North,-999,0.0,2.2,91,0.00,,,-99.99,FreeWX-Wi 1.01,2013-04-11 07:31:00,
2013-04-11 00:36:00,46.4,44.2,30.18,North,-999,0.0,0.0,92,0.00,,,-99.99,FreeWX-Wi 1.01,2013-04-11 07:36:00,
2013-04-11 00:41:00,46.4,44.2,30.18,North,-999,0.0,4.0,92,0.00,,,-99.99,FreeWX-Wi 1.01,2013-04-11 07:41:00,
2013-04-11 00:46:00,46.4,44.2,30.18,North,-999,0.0,4.0,92,0.00,,,-99.99,FreeWX-Wi 1.01,2013-04-11 07:46:00,
2013-04-11 00:51:00,46.2,44.1,30.18,North,-999,0.0,3.1,92,0.00,,,-99.99,FreeWX-Wi 1.01,2013-04-11 07:51:00,
2013-04-11 00:56:00,46.2,44.1,30.18,SSW,213,1.0,4.9,92,0.00,,,-99.99,FreeWX-Wi 1.01,2013-04-11 07:56:00,
2013-04-11 01:01:00,46.0,43.9,30.18,SW,215,1.0,5.4,92,0.00,,,-99.99,FreeWX-Wi 1.01,2013-04-11 08:01:00,
2013-04-11 01:06:00,45.7,43.2,30.18,SW,214,1.0,4.0,91,0.00,,,-99.99,FreeWX-Wi 1.01,2013-04-11 08:06:00,
2013-04-11 01:11:00,45.5,43.0,30.18,SW,218,1.0,3.1,91,0.00,,,-99.99,FreeWX-Wi 1.01,2013-04-11 08:11:00,
2013-04-11 01:16:00,45.3,42.8,30.18,SW,225,1.0,0.0,91,0.00,,,-99.99,FreeWX-Wi 1.01,2013-04-11 08:16:00,
2013-04-11 01:21:00,45.1,42.6,30.18,SW,228,1.0,5.4,91,0.00,,,-99.99,FreeWX-Wi 1.01,2013-04-11 08:21:00,
2013-04-11 01:26:00,45.1,42.6,30.18,SW,226,1.0,4.0,91,0.00,,,-99.99,FreeWX-Wi 1.01,2013-04-11 08:26:00,
2013-04-11 01:31:00,45.1,42.6,30.18,SW,230,1.0,2.2,91,0.00,,,-99.99,FreeWX-Wi 1.01,2013-04-11 08:31:00,
2013-04-11 01:36:00,45.0,42.4,30.18,North,-999,0.0,2.7,91,0.00,,,-99.99,FreeWX-Wi 1.01,2013-04-11 08:36:00,
2013-04-11 01:41:00,45.1,42.6,30.18,North,-999,0.0,0.0,91,0.00,,,-99.99,FreeWX-Wi 1.01,2013-04-11 08:41:00,
2013-04-11 01:46:00,45.1,42.6,30.18,North,-999,0.0,3.1,91,0.00,,,-99.99,FreeWX-Wi 1.01,2013-04-11 08:46:00,
2013-04-11 01:51:00,45.3,42.8,30.18,North,-999,0.0,2.7,91,0.00,,,-99.99,FreeWX-Wi 1.01,2013-04-11 08:51:00,
2013-04-11 01:56:00,45.3,42.8,30.18,North,-999,0.0,0.0,91,0.00,,,-99.99,FreeWX-Wi 1.01,2013-04-11 08:56:00,
2013-04-11 02:01:00,45.3,42.8,30.18,North,-999,0.0,0.0,91,0.00,,,-99.99,FreeWX-Wi 1.01,2013-04-11 09:01:00,
2013-04-11 02:06:00,45.3,42.8,30.18,North,-999,0.0,0.0,91,0.00,,,-99.99,FreeWX-Wi 1.01,2013-04-11 09:06:00,
2013-04-11 02:21:00,45.5,43.0,30.18,SW,215,1.0,5.8,91,0.00,,,-99.99,FreeWX-Wi 1.01,2013-04-11 09:21:00,
2013-04-11 02:32:00,45.5,42.4,30.18,SSW,206,2.0,6.3,89,0.00,,,-99.99,FreeWX-Wi 1.01,2013-04-11 09:32:00,
2013-04-11 02:37:00,45.7,42.6,30.15,SSW,204,2.0,5.4,89,0.00,,,-99.99,FreeWX-Wi 1.01,2013-04-11 09:37:00,
2013-04-11 02:42:00,45.7,42.6,30.15,SSW,203,2.0,5.8,89,0.00,,,-99.99,FreeWX-Wi 1.01,2013-04-11 09:42:00,
2013-04-11 02:47:00,45.7,42.6,30.15,SSW,206,2.0,4.9,89,0.00,,,-99.99,FreeWX-Wi 1.01,2013-04-11 09:47:00,
2013-04-11 02:52:00,45.7,42.6,30.18,SSW,208,2.0,5.4,89,0.00,,,-99.99,FreeWX-Wi 1.01,2013-04-11 09:52:00,
2013-04-11 02:57:00,45.7,42.3,30.18,SSW,208,2.0,5.8,88,0.00,,,-99.99,FreeWX-Wi 1.01,2013-04-11 09:57:00,
2013-04-11 03:02:00,45.7,42.3,30.18,SSW,210,3.0,8.3,88,0.00,,,-99.99,FreeWX-Wi 1.01,2013-04-11 10:02:00,
2013-04-11 03:07:00,45.7,42.3,30.18,SSW,210,3.0,4.9,88,0.00,,,-99.99,FreeWX-Wi 1.01,2013-04-11 10:07:00,
2013-04-11 03:12:00,45.7,42.1,30.18,SSW,213,2.0,5.4,87,0.00,,,-99.99,FreeWX-Wi 1.01,2013-04-11 10:12:00,
2013-04-11 03:17:00,45.7,42.1,30.18,SW,215,2.0,5.8,87,0.00,,,-99.99,FreeWX-Wi 1.01,2013-04-11 10:17:00,
2013-04-11 03:22:00,45.7,42.1,30.15,SSW,213,2.0,5.8,87,0.00,,,-99.99,FreeWX-Wi 1.01,2013-04-11 10:22:00,
2013-04-11 03:27:00,45.7,42.1,30.15,SSW,210,3.0,6.3,87,0.00,,,-99.99,FreeWX-Wi 1.01,2013-04-11 10:27:00,
2013-04-11 03:32:00,45.7,41.7,30.15,SSW,209,2.0,5.4,86,0.00,,,-99.99,FreeWX-Wi 1.01,2013-04-11 10:32:00,
2013-04-11 03:37:00,45.5,41.5,30.15,SSW,210,2.0,4.9,86,0.00,,,-99.99,FreeWX-Wi 1.01,2013-04-11 10:37:00,
2013-04-11 03:42:00,45.5,41.5,30.15,SSW,209,2.0,10.1,86,0.00,,,-99.99,FreeWX-Wi 1.01,2013-04-11 10:42:00,
2013-04-11 03:47:00,45.5,41.2,30.15,SSW,208,2.0,4.0,85,0.00,,,-99.99,FreeWX-Wi 1.01,2013-04-11 10:47:00,
2013-04-11 03:52:00,45.3,41.0,30.18,SSW,206,3.0,7.2,85,0.00,,,-99.99,FreeWX-Wi 1.01,2013-04-11 10:52:00,
2013-04-11 03:57:00,45.3,41.0,30.18,SSW,205,3.0,7.6,85,0.00,,,-99.99,FreeWX-Wi 1.01,2013-04-11 10:57:00,
2013-04-11 04:02:00,45.3,40.8,30.18,SSW,205,3.0,5.8,84,0.00,,,-99.99,FreeWX-Wi 1.01,2013-04-11 11:02:00,
2013-04-11 04:07:00,45.3,40.8,30.15,SSW,203,3.0,5.8,84,0.00,,,-99.99,FreeWX-Wi 1.01,2013-04-11 11:07:00,
2013-04-11 04:12:00,45.1,40.6,30.15,SSW,199,3.0,7.6,84,0.00,,,-99.99,FreeWX-Wi 1.01,2013-04-11 11:12:00,
2013-04-11 04:17:00,45.1,40.6,30.15,SSW,197,3.0,6.3,84,0.00,,,-99.99,FreeWX-Wi 1.01,2013-04-11 11:17:00,
2013-04-11 04:22:00,45.1,40.6,30.15,SSW,192,3.0,7.6,84,0.00,,,-99.99,FreeWX-Wi 1.01,2013-04-11 11:22:00,